Time,TemperatureF,DewpointF,PressureIn,WindDirection,WindDirectionDegrees,WindSpeedMPH,WindSpeedGustMPH,Humidity,HourlyPrecipIn,Conditions,Clouds,dailyrainin,SoftwareType,DateUTC
2013-04-02 00:00:00,35.4,17.1,29.96,ENE,62,3.0,3.0,47,0.00,,,0.09,Wunderground v.1.15,2013-04-02 04:00:00,
2013-04-02 00:05:00,35.3,17.5,29.96,WNW,294,2.0,3.0,48,0.00,,,0.00,Wunderground v.1.15,2013-04-02 04:05:00,
2013-04-02 00:10:00,35.2,17.0,29.96,West,260,1.0,1.0,47,0.00,,,0.00,Wunderground v.1.15,2013-04-02 04:10:00,
2013-04-02 00:15:00,35.1,17.8,29.95,East,93,1.0,2.0,49,0.00,,,0.00,Wunderground v.1.15,2013-04-02 04:15:00,
2013-04-02 00:20:00,34.8,17.6,29.96,North,359,1.0,1.0,49,0.00,,,0.00,Wunderground v.1.15,2013-04-02 04:20:00,
2013-04-02 00:30:00,34.6,17.4,29.96,SSW,204,1.0,1.0,49,0.00,,,0.00,Wunderground v.1.15,2013-04-02 04:30:00,
2013-04-02 00:40:00,34.2,17.5,29.96,SW,220,2.0,2.0,50,0.00,,,0.00,Wunderground v.1.15,2013-04-02 04:40:00,
2013-04-02 00:45:00,34.3,16.6,29.96,WSW,249,3.0,3.0,48,0.00,,,0.00,Wunderground v.1.15,2013-04-02 04:45:00,
2013-04-02 00:55:00,34.6,16.9,29.97,West,270,2.0,3.0,48,0.00,,,0.00,Wunderground v.1.15,2013-04-02 04:55:00,
2013-04-02 01:05:00,34.8,17.1,29.97,NNE,16,2.0,3.0,48,0.00,,,0.00,Wunderground v.1.15,2013-04-02 05:05:00,
2013-04-02 01:15:00,34.8,17.1,29.97,NNE,25,2.0,2.0,48,0.00,,,0.00,Wunderground v.1.15,2013-04-02 05:15:00,
2013-04-02 01:20:00,34.6,16.9,29.97,NNE,25,0.0,0.0,48,0.00,,,0.00,Wunderground v.1.15,2013-04-02 05:20:00,
2013-04-02 01:30:00,34.5,17.8,29.97,NNE,16,1.0,5.0,50,0.00,,,0.00,Wunderground v.1.15,2013-04-02 05:30:00,
2013-04-02 01:40:00,34.2,17.9,29.97,North,8,1.0,1.0,51,0.00,,,0.00,Wunderground v.1.15,2013-04-02 05:40:00,
2013-04-02 01:45:00,34.0,18.2,29.97,NNW,341,1.0,3.0,52,0.00,,,0.00,Wunderground v.1.15,2013-04-02 05:45:00,
2013-04-02 01:55:00,33.9,18.1,29.97,SW,226,1.0,1.0,52,0.00,,,0.00,Wunderground v.1.15,2013-04-02 05:55:00,
2013-04-02 02:00:00,33.8,18.5,29.97,NNE,18,0.0,1.0,53,0.00,,,0.00,Wunderground v.1.15,2013-04-02 06:00:00,
2013-04-02 02:05:00,33.7,18.4,29.97,NNE,18,0.0,1.0,53,0.00,,,0.00,Wunderground v.1.15,2013-04-02 06:05:00,
2013-04-02 02:15:00,33.4,17.6,29.97,WSW,253,1.0,5.0,52,0.00,,,0.00,Wunderground v.1.15,2013-04-02 06:15:00,
2013-04-02 02:25:00,33.9,18.6,29.97,North,4,3.0,3.0,53,0.00,,,0.00,Wunderground v.1.15,2013-04-02 06:25:00,
2013-04-02 02:35:00,33.7,18.8,29.97,NNE,29,2.0,2.0,54,0.00,,,0.00,Wunderground v.1.15,2013-04-02 06:35:00,
2013-04-02 02:45:00,33.4,18.9,29.97,NNW,343,1.0,2.0,55,0.00,,,0.00,Wunderground v.1.15,2013-04-02 06:45:00,
2013-04-02 02:55:00,32.9,18.1,29.97,North,8,1.0,4.0,54,0.00,,,0.00,Wunderground v.1.15,2013-04-02 06:55:00,
2013-04-02 03:00:00,33.1,17.8,29.97,West,272,3.0,3.0,53,0.00,,,0.00,Wunderground v.1.15,2013-04-02 07:00:00,
2013-04-02 03:05:00,33.4,17.2,29.97,NNE,12,3.0,3.0,51,0.00,,,0.00,Wunderground v.1.15,2013-04-02 07:05:00,
2013-04-02 03:15:00,33.4,17.6,29.97,NW,320,1.0,4.0,52,0.00,,,0.00,Wunderground v.1.15,2013-04-02 07:15:00,
2013-04-02 03:25:00,33.2,17.9,29.97,WSW,248,3.0,4.0,53,0.00,,,0.00,Wunderground v.1.15,2013-04-02 07:25:00,
2013-04-02 03:35:00,33.1,16.5,29.98,WNW,287,3.0,3.0,50,0.00,,,0.00,Wunderground v.1.15,2013-04-02 07:35:00,
2013-04-02 03:45:00,33.2,16.5,29.98,West,270,4.0,7.0,50,0.00,,,0.00,Wunderground v.1.15,2013-04-02 07:45:00,
2013-04-02 03:55:00,33.2,17.0,29.98,NW,324,3.0,4.0,51,0.00,,,0.00,Wunderground v.1.15,2013-04-02 07:55:00,
2013-04-02 04:05:00,32.6,17.3,29.98,NW,305,1.0,2.0,53,0.00,,,0.00,Wunderground v.1.15,2013-04-02 08:05:00,
2013-04-02 04:15:00,32.3,16.6,29.98,SW,221,2.0,5.0,52,0.00,,,0.00,Wunderground v.1.15,2013-04-02 08:15:00,
2013-04-02 04:20:00,32.1,16.0,29.98,WNW,295,1.0,5.0,51,0.00,,,0.00,Wunderground v.1.15,2013-04-02 08:20:00,
2013-04-02 04:30:00,31.9,16.2,29.98,SSW,211,2.0,4.0,52,0.00,,,0.00,Wunderground v.1.15,2013-04-02 08:30:00,
2013-04-02 04:40:00,31.7,16.1,29.98,WSW,246,1.0,1.0,52,0.00,,,0.00,Wunderground v.1.15,2013-04-02 08:40:00,
2013-04-02 04:50:00,31.3,17.0,29.99,WNW,290,1.0,1.0,55,0.00,,,0.00,Wunderground v.1.15,2013-04-02 08:50:00,
2013-04-02 05:00:00,31.0,16.3,29.99,West,270,1.0,1.0,54,0.00,,,0.00,Wunderground v.1.15,2013-04-02 09:00:00,
2013-04-02 05:05:00,31.0,16.3,29.99,WSW,247,2.0,2.0,54,0.00,,,0.00,Wunderground v.1.15,2013-04-02 09:05:00,
2013-04-02 05:15:00,31.3,15.7,29.99,West,264,4.0,4.0,52,0.00,,,0.00,Wunderground v.1.15,2013-04-02 09:15:00,
2013-04-02 05:25:00,31.3,16.1,29.99,WNW,289,1.0,3.0,53,0.00,,,0.00,Wunderground v.1.15,2013-04-02 09:25:00,
2013-04-02 05:35:00,30.9,15.3,29.99,SW,221,3.0,3.0,52,0.00,,,0.00,Wunderground v.1.15,2013-04-02 09:35:00,
2013-04-02 05:45:00,30.9,15.3,30.00,West,264,3.0,3.0,52,0.00,,,0.00,Wunderground v.1.15,2013-04-02 09:45:00,
2013-04-02 05:55:00,30.6,16.3,30.00,SSW,206,3.0,3.0,55,0.00,,,0.00,Wunderground v.1.15,2013-04-02 09:55:00,
2013-04-02 06:05:00,30.4,14.9,30.01,WSW,251,2.0,2.0,52,0.00,,,0.00,Wunderground v.1.15,2013-04-02 10:05:00,
2013-04-02 06:15:00,30.3,15.2,30.01,West,278,2.0,2.0,53,0.00,,,0.00,Wunderground v.1.15,2013-04-02 10:15:00,
2013-04-02 06:25:00,30.1,13.2,30.02,West,281,2.0,3.0,49,0.00,,,0.00,Wunderground v.1.15,2013-04-02 10:25:00,
2013-04-02 06:35:00,30.1,14.1,30.02,North,10,3.0,3.0,51,0.00,,,0.00,Wunderground v.1.15,2013-04-02 10:35:00,
2013-04-02 06:45:00,29.9,13.5,30.03,WNW,295,3.0,3.0,50,0.00,,,0.00,Wunderground v.1.15,2013-04-02 10:45:00,
2013-04-02 06:50:00,29.8,13.9,30.03,SW,222,2.0,2.0,51,0.00,,,0.00,Wunderground v.1.15,2013-04-02 10:50:00,
2013-04-02 07:00:00,29.7,13.8,30.04,WSW,237,1.0,5.0,51,0.00,,,0.00,Wunderground v.1.15,2013-04-02 11:00:00,
2013-04-02 07:05:00,29.6,14.1,30.04,SW,231,2.0,5.0,52,0.00,,,0.00,Wunderground v.1.15,2013-04-02 11:05:00,
2013-04-02 07:15:00,29.3,13.8,30.05,SSW,204,2.0,3.0,52,0.00,,,0.00,Wunderground v.1.15,2013-04-02 11:15:00,
2013-04-02 07:25:00,29.5,13.6,30.06,WSW,245,2.0,4.0,51,0.00,,,0.00,Wunderground v.1.15,2013-04-02 11:25:00,
2013-04-02 07:35:00,29.5,14.0,30.06,SW,236,1.0,3.0,52,0.00,,,0.00,Wunderground v.1.15,2013-04-02 11:35:00,
2013-04-02 07:45:00,29.7,13.8,30.07,WSW,245,3.0,4.0,51,0.00,,,0.00,Wunderground v.1.15,2013-04-02 11:45:00,
2013-04-02 07:50:00,29.9,14.8,30.07,WNW,286,4.0,4.0,53,0.00,,,0.00,Wunderground v.1.15,2013-04-02 11:50:00,
2013-04-02 08:00:00,30.2,13.3,30.08,SW,233,4.0,5.0,49,0.00,,,0.00,Wunderground v.1.15,2013-04-02 12:00:00,
2013-04-02 08:05:00,30.2,14.2,30.08,SW,217,4.0,8.0,51,0.00,,,0.00,Wunderground v.1.15,2013-04-02 12:05:00,
2013-04-02 08:15:00,30.3,13.9,30.08,West,276,7.0,7.0,50,0.00,,,0.00,Wunderground v.1.15,2013-04-02 12:15:00,
2013-04-02 08:20:00,30.3,14.3,30.09,West,277,7.0,11.0,51,0.00,,,0.00,Wunderground v.1.15,2013-04-02 12:20:00,
2013-04-02 08:30:00,30.4,14.9,30.09,WSW,237,6.0,6.0,52,0.00,,,0.00,Wunderground v.1.15,2013-04-02 12:30:00,
2013-04-02 08:40:00,30.6,14.6,30.09,West,274,6.0,13.0,51,0.00,,,0.00,Wunderground v.1.15,2013-04-02 12:40:00,
2013-04-02 08:50:00,30.9,14.9,30.09,WSW,241,5.0,9.0,51,0.00,,,0.00,Wunderground v.1.15,2013-04-02 12:50:00,
2013-04-02 09:00:00,31.0,15.0,30.10,NW,324,7.0,7.0,51,0.00,,,0.00,Wunderground v.1.15,2013-04-02 13:00:00,
2013-04-02 09:05:00,31.2,16.0,30.10,WSW,254,5.0,7.0,53,0.00,,,0.00,Wunderground v.1.15,2013-04-02 13:05:00,
2013-04-02 09:15:00,31.3,14.8,30.10,WNW,288,9.0,9.0,50,0.00,,,0.00,Wunderground v.1.15,2013-04-02 13:15:00,
2013-04-02 09:25:00,31.5,14.5,30.10,WSW,248,8.0,9.0,49,0.00,,,0.00,Wunderground v.1.15,2013-04-02 13:25:00,
2013-04-02 09:35:00,31.8,15.7,30.10,WSW,238,5.0,14.0,51,0.00,,,0.00,Wunderground v.1.15,2013-04-02 13:35:00,
2013-04-02 09:45:00,32.4,15.8,30.10,West,269,5.0,8.0,50,0.00,,,0.00,Wunderground v.1.15,2013-04-02 13:45:00,
2013-04-02 09:50:00,32.8,15.7,30.10,SSW,212,5.0,7.0,49,0.00,,,0.00,Wunderground v.1.15,2013-04-02 13:50:00,
2013-04-02 10:00:00,33.2,15.6,30.10,West,268,6.0,7.0,48,0.00,,,0.00,Wunderground v.1.15,2013-04-02 14:00:00,
2013-04-02 10:05:00,33.2,15.1,30.11,NW,305,7.0,8.0,47,0.00,,,0.00,Wunderground v.1.15,2013-04-02 14:05:00,
2013-04-02 10:15:00,33.6,16.9,30.11,SSW,204,6.0,7.0,50,0.00,,,0.00,Wunderground v.1.15,2013-04-02 14:15:00,
2013-04-02 10:20:00,33.6,14.5,30.11,SW,226,8.0,8.0,45,0.00,,,0.00,Wunderground v.1.15,2013-04-02 14:20:00,
2013-04-02 10:30:00,34.1,16.9,30.11,WSW,247,6.0,6.0,49,0.00,,,0.00,Wunderground v.1.15,2013-04-02 14:30:00,
2013-04-02 10:40:00,34.4,15.2,30.11,WSW,239,8.0,9.0,45,0.00,,,0.00,Wunderground v.1.15,2013-04-02 14:40:00,
2013-04-02 10:45:00,34.7,16.0,30.11,SW,233,8.0,9.0,46,0.00,,,0.00,Wunderground v.1.15,2013-04-02 14:45:00,
2013-04-02 10:50:00,35.2,16.0,30.11,SW,224,8.0,8.0,45,0.00,,,0.00,Wunderground v.1.15,2013-04-02 14:50:00,
2013-04-02 11:00:00,35.7,15.9,30.11,North,354,7.0,7.0,44,0.00,,,0.00,Wunderground v.1.15,2013-04-02 15:00:00,
2013-04-02 11:05:00,36.4,18.1,30.11,NNW,343,5.0,12.0,47,0.00,,,0.00,Wunderground v.1.15,2013-04-02 15:05:00,
2013-04-02 11:15:00,36.5,16.6,30.11,West,264,8.0,8.0,44,0.00,,,0.00,Wunderground v.1.15,2013-04-02 15:15:00,
2013-04-02 11:25:00,36.4,14.9,30.11,SSW,204,10.0,15.0,41,0.00,,,0.00,Wunderground v.1.15,2013-04-02 15:25:00,
2013-04-02 11:35:00,37.8,17.8,30.11,SW,224,6.0,10.0,44,0.00,,,0.00,Wunderground v.1.15,2013-04-02 15:35:00,
2013-04-02 11:45:00,37.5,18.6,30.11,SW,218,8.0,8.0,46,0.00,,,0.00,Wunderground v.1.15,2013-04-02 15:45:00,
2013-04-02 11:50:00,38.0,15.8,30.11,SW,232,8.0,9.0,40,0.00,,,0.00,Wunderground v.1.15,2013-04-02 15:50:00,
2013-04-02 12:00:00,38.0,19.5,30.11,SW,216,6.0,7.0,47,0.00,,,0.00,Wunderground v.1.15,2013-04-02 16:00:00,
2013-04-02 12:05:00,38.6,17.5,30.12,WSW,239,7.0,11.0,42,0.00,,,0.00,Wunderground v.1.15,2013-04-02 16:05:00,
2013-04-02 12:15:00,39.4,20.3,30.11,WSW,252,9.0,9.0,46,0.00,,,0.00,Wunderground v.1.15,2013-04-02 16:15:00,
2013-04-02 12:20:00,39.4,17.0,30.12,SW,224,6.0,6.0,40,0.00,,,0.00,Wunderground v.1.15,2013-04-02 16:20:00,
2013-04-02 12:30:00,39.1,15.6,30.11,WSW,246,8.0,14.0,38,0.00,,,0.00,Wunderground v.1.15,2013-04-02 16:30:00,
2013-04-02 12:35:00,39.1,17.4,30.11,WSW,241,8.0,14.0,41,0.00,,,0.00,Wunderground v.1.15,2013-04-02 16:35:00,
2013-04-02 12:45:00,38.9,16.6,30.11,WSW,254,7.0,13.0,40,0.00,,,0.00,Wunderground v.1.15,2013-04-02 16:45:00,
2013-04-02 12:55:00,40.1,17.1,30.11,SW,223,7.0,17.0,39,0.00,,,0.00,Wunderground v.1.15,2013-04-02 16:55:00,
2013-04-02 13:05:00,40.9,16.0,30.11,SSW,208,7.0,10.0,36,0.00,,,0.00,Wunderground v.1.15,2013-04-02 17:05:00,
2013-04-02 13:15:00,40.4,19.1,30.11,SSW,202,7.0,12.0,42,0.00,,,0.00,Wunderground v.1.15,2013-04-02 17:15:00,
2013-04-02 13:25:00,40.6,16.3,30.10,SSW,206,10.0,11.0,37,0.00,,,0.00,Wunderground v.1.15,2013-04-02 17:25:00,
2013-04-02 13:35:00,40.7,15.8,30.10,SSW,212,8.0,8.0,36,0.00,,,0.00,Wunderground v.1.15,2013-04-02 17:35:00,
2013-04-02 13:45:00,41.0,15.4,30.10,West,281,9.0,10.0,35,0.00,,,0.00,Wunderground v.1.15,2013-04-02 17:45:00,
2013-04-02 13:50:00,41.6,16.6,30.10,NW,304,9.0,10.0,36,0.00,,,0.00,Wunderground v.1.15,2013-04-02 17:50:00,
2013-04-02 14:00:00,42.1,17.7,30.09,SW,220,8.0,16.0,37,0.00,,,0.00,Wunderground v.1.15,2013-04-02 18:00:00,
2013-04-02 14:05:00,42.1,18.3,30.09,SW,216,9.0,16.0,38,0.00,,,0.00,Wunderground v.1.15,2013-04-02 18:05:00,
2013-04-02 14:15:00,41.3,15.7,30.09,SW,226,8.0,10.0,35,0.00,,,0.00,Wunderground v.1.15,2013-04-02 18:15:00,
2013-04-02 14:25:00,42.3,15.2,30.09,SW,223,7.0,7.0,33,0.00,,,0.00,Wunderground v.1.15,2013-04-02 18:25:00,
2013-04-02 14:35:00,43.5,16.9,30.08,WSW,249,6.0,7.0,34,0.00,,,0.00,Wunderground v.1.15,2013-04-02 18:35:00,
2013-04-02 14:40:00,43.4,17.5,30.08,South,172,5.0,5.0,35,0.00,,,0.00,Wunderground v.1.15,2013-04-02 18:40:00,
2013-04-02 14:50:00,43.5,14.8,30.08,WSW,240,8.0,9.0,31,0.00,,,0.00,Wunderground v.1.15,2013-04-02 18:50:00,
2013-04-02 15:00:00,44.0,15.3,30.08,NW,310,9.0,9.0,31,0.00,,,0.00,Wunderground v.1.15,2013-04-02 19:00:00,
2013-04-02 15:05:00,44.3,16.3,30.07,NW,321,9.0,15.0,32,0.00,,,0.00,Wunderground v.1.15,2013-04-02 19:05:00,
2013-04-02 15:15:00,43.8,18.5,30.07,SSW,195,9.0,9.0,36,0.00,,,0.00,Wunderground v.1.15,2013-04-02 19:15:00,
2013-04-02 15:25:00,44.1,14.6,30.07,SW,227,7.0,13.0,30,0.00,,,0.00,Wunderground v.1.15,2013-04-02 19:25:00,
2013-04-02 15:35:00,44.2,15.4,30.06,SW,226,8.0,11.0,31,0.00,,,0.00,Wunderground v.1.15,2013-04-02 19:35:00,
2013-04-02 15:45:00,44.1,13.8,30.06,North,359,7.0,14.0,29,0.00,,,0.00,Wunderground v.1.15,2013-04-02 19:45:00,
2013-04-02 15:55:00,44.6,14.3,30.07,SW,216,9.0,10.0,29,0.00,,,0.00,Wunderground v.1.15,2013-04-02 19:55:00,
2013-04-02 16:05:00,45.0,13.8,30.06,West,260,10.0,16.0,28,0.00,,,0.00,Wunderground v.1.15,2013-04-02 20:05:00,
2013-04-02 16:15:00,44.4,13.3,30.06,SSW,208,9.0,9.0,28,0.00,,,0.00,Wunderground v.1.15,2013-04-02 20:15:00,
2013-04-02 16:25:00,44.5,14.9,30.06,SW,218,11.0,12.0,30,0.00,,,0.00,Wunderground v.1.15,2013-04-02 20:25:00,
2013-04-02 16:35:00,44.1,17.5,30.06,WSW,241,8.0,11.0,34,0.00,,,0.00,Wunderground v.1.15,2013-04-02 20:35:00,
2013-04-02 16:45:00,45.3,14.1,30.06,SW,229,7.0,13.0,28,0.00,,,0.00,Wunderground v.1.15,2013-04-02 20:45:00,
2013-04-02 16:55:00,44.9,16.8,30.06,WSW,251,6.0,8.0,32,0.00,,,0.00,Wunderground v.1.15,2013-04-02 20:55:00,
2013-04-02 17:00:00,45.3,15.6,30.07,SW,222,7.0,7.0,30,0.00,,,0.00,Wunderground v.1.15,2013-04-02 21:00:00,
2013-04-02 17:05:00,45.1,16.2,30.07,SW,218,7.0,7.0,31,0.00,,,0.00,Wunderground v.1.15,2013-04-02 21:05:00,
2013-04-02 17:15:00,45.2,15.6,30.07,WSW,238,8.0,9.0,30,0.00,,,0.00,Wunderground v.1.15,2013-04-02 21:15:00,
2013-04-02 17:25:00,44.4,14.9,30.07,West,265,8.0,13.0,30,0.00,,,0.00,Wunderground v.1.15,2013-04-02 21:25:00,
2013-04-02 17:30:00,44.8,14.4,30.07,SW,234,5.0,6.0,29,0.00,,,0.00,Wunderground v.1.15,2013-04-02 21:30:00,
2013-04-02 17:40:00,45.2,15.6,30.07,WSW,238,6.0,10.0,30,0.00,,,0.00,Wunderground v.1.15,2013-04-02 21:40:00,
2013-04-02 17:45:00,44.6,14.3,30.07,SSW,211,7.0,10.0,29,0.00,,,0.00,Wunderground v.1.15,2013-04-02 21:45:00,
2013-04-02 17:50:00,44.5,14.2,30.07,WSW,239,9.0,9.0,29,0.00,,,0.00,Wunderground v.1.15,2013-04-02 21:50:00,
2013-04-02 18:00:00,43.5,14.1,30.08,South,172,6.0,7.0,30,0.00,,,0.00,Wunderground v.1.15,2013-04-02 22:00:00,
2013-04-02 18:05:00,43.4,14.7,30.08,South,191,5.0,7.0,31,0.00,,,0.00,Wunderground v.1.15,2013-04-02 22:05:00,
2013-04-02 18:15:00,44.1,13.8,30.08,SW,216,3.0,5.0,29,0.00,,,0.00,Wunderground v.1.15,2013-04-02 22:15:00,
2013-04-02 18:20:00,44.0,14.5,30.08,SSW,208,5.0,5.0,30,0.00,,,0.00,Wunderground v.1.15,2013-04-02 22:20:00,
2013-04-02 18:30:00,42.7,11.8,30.08,SW,235,9.0,9.0,28,0.00,,,0.00,Wunderground v.1.15,2013-04-02 22:30:00,
2013-04-02 18:35:00,42.1,12.1,30.08,West,261,10.0,11.0,29,0.00,,,0.00,Wunderground v.1.15,2013-04-02 22:35:00,
2013-04-02 18:45:00,41.6,12.4,30.09,SW,226,5.0,12.0,30,0.00,,,0.00,Wunderground v.1.15,2013-04-02 22:45:00,
2013-04-02 18:55:00,40.7,11.6,30.09,WNW,301,6.0,7.0,30,0.00,,,0.00,Wunderground v.1.15,2013-04-02 22:55:00,
2013-04-02 19:05:00,40.1,12.6,30.09,SW,222,6.0,8.0,32,0.00,,,0.00,Wunderground v.1.15,2013-04-02 23:05:00,
2013-04-02 19:15:00,39.7,11.5,30.10,SW,224,4.0,8.0,31,0.00,,,0.00,Wunderground v.1.15,2013-04-02 23:15:00,
2013-04-02 19:25:00,39.6,11.4,30.10,WNW,291,5.0,6.0,31,0.00,,,0.00,Wunderground v.1.15,2013-04-02 23:25:00,
2013-04-02 19:35:00,39.4,11.9,30.10,WNW,297,3.0,5.0,32,0.00,,,0.00,Wunderground v.1.15,2013-04-02 23:35:00,
2013-04-02 19:45:00,38.9,11.5,30.10,SW,235,3.0,3.0,32,0.00,,,0.00,Wunderground v.1.15,2013-04-02 23:45:00,
2013-04-02 19:50:00,38.9,11.5,30.10,NNW,330,4.0,4.0,32,0.00,,,0.00,Wunderground v.1.15,2013-04-02 23:50:00,
2013-04-02 20:00:00,38.3,13.0,30.11,SE,140,1.0,1.0,35,0.00,,,0.00,Wunderground v.1.15,2013-04-03 00:00:00,
2013-04-02 20:05:00,38.0,12.7,30.11,SE,140,1.0,1.0,35,0.00,,,0.00,Wunderground v.1.15,2013-04-03 00:05:00,
2013-04-02 20:15:00,37.6,13.6,30.12,ENE,70,1.0,1.0,37,0.00,,,0.00,Wunderground v.1.15,2013-04-03 00:15:00,
2013-04-02 20:25:00,37.3,14.0,30.12,NNE,13,2.0,4.0,38,0.00,,,0.00,Wunderground v.1.15,2013-04-03 00:25:00,
2013-04-02 20:30:00,37.1,13.2,30.12,WNW,296,2.0,2.0,37,0.00,,,0.00,Wunderground v.1.15,2013-04-03 00:30:00,
2013-04-02 20:40:00,36.9,13.0,30.12,NNW,343,1.0,1.0,37,0.00,,,0.00,Wunderground v.1.15,2013-04-03 00:40:00,
2013-04-02 20:50:00,36.8,14.1,30.12,NW,313,1.0,2.0,39,0.00,,,0.00,Wunderground v.1.15,2013-04-03 00:50:00,
2013-04-02 21:00:00,36.7,13.4,30.13,West,279,1.0,1.0,38,0.00,,,0.00,Wunderground v.1.15,2013-04-03 01:00:00,
2013-04-02 21:05:00,36.5,13.9,30.13,WNW,298,1.0,5.0,39,0.00,,,0.00,Wunderground v.1.15,2013-04-03 01:05:00,
2013-04-02 21:15:00,36.2,14.7,30.14,West,266,1.0,2.0,41,0.00,,,0.00,Wunderground v.1.15,2013-04-03 01:15:00,
2013-04-02 21:25:00,35.6,14.7,30.14,NNE,33,1.0,1.0,42,0.00,,,0.00,Wunderground v.1.15,2013-04-03 01:25:00,
2013-04-02 21:35:00,35.0,15.8,30.14,ENE,77,1.0,3.0,45,0.00,,,0.00,Wunderground v.1.15,2013-04-03 01:35:00,
2013-04-02 21:45:00,34.7,14.5,30.15,ENE,60,1.0,2.0,43,0.00,,,0.00,Wunderground v.1.15,2013-04-03 01:45:00,
2013-04-02 21:55:00,34.6,14.9,30.15,NNW,333,0.0,2.0,44,0.00,,,0.00,Wunderground v.1.15,2013-04-03 01:55:00,
2013-04-02 22:00:00,34.4,14.2,30.15,NNW,346,1.0,3.0,43,0.00,,,0.00,Wunderground v.1.15,2013-04-03 02:00:00,
2013-04-02 22:05:00,34.4,14.2,30.15,WNW,296,1.0,3.0,43,0.00,,,0.00,Wunderground v.1.15,2013-04-03 02:05:00,
2013-04-02 22:15:00,34.4,15.7,30.15,North,354,0.0,1.0,46,0.00,,,0.00,Wunderground v.1.15,2013-04-03 02:15:00,
2013-04-02 22:20:00,34.1,15.5,30.15,North,4,0.0,0.0,46,0.00,,,0.00,Wunderground v.1.15,2013-04-03 02:20:00,
2013-04-02 22:25:00,33.8,15.7,30.15,North,4,0.0,0.0,47,0.00,,,0.00,Wunderground v.1.15,2013-04-03 02:25:00,
2013-04-02 22:35:00,33.3,14.7,30.15,North,4,0.0,0.0,46,0.00,,,0.00,Wunderground v.1.15,2013-04-03 02:35:00,
2013-04-02 22:45:00,33.2,15.6,30.15,NE,47,0.0,1.0,48,0.00,,,0.00,Wunderground v.1.15,2013-04-03 02:45:00,
2013-04-02 22:50:00,33.0,15.4,30.15,NE,47,1.0,1.0,48,0.00,,,0.00,Wunderground v.1.15,2013-04-03 02:50:00,
2013-04-02 23:00:00,33.8,14.7,30.15,WSW,245,2.0,2.0,45,0.00,,,0.00,Wunderground v.1.15,2013-04-03 03:00:00,
2013-04-02 23:05:00,33.9,15.8,30.15,NW,317,1.0,2.0,47,0.00,,,0.00,Wunderground v.1.15,2013-04-03 03:05:00,
2013-04-02 23:15:00,33.5,14.9,30.15,ESE,118,1.0,1.0,46,0.00,,,0.00,Wunderground v.1.15,2013-04-03 03:15:00,
2013-04-02 23:25:00,33.4,14.8,30.16,NW,313,0.0,1.0,46,0.00,,,0.00,Wunderground v.1.15,2013-04-03 03:25:00,
2013-04-02 23:35:00,33.2,15.6,30.16,NW,313,1.0,1.0,48,0.00,,,0.00,Wunderground v.1.15,2013-04-03 03:35:00,
2013-04-02 23:40:00,33.3,15.2,30.16,NW,324,1.0,1.0,47,0.00,,,0.00,Wunderground v.1.15,2013-04-03 03:40:00,
2013-04-02 23:50:00,33.4,15.3,30.16,North,354,1.0,1.0,47,0.00,,,0.00,Wunderground v.1.15,2013-04-03 03:50:00,